Watauga Observed Data For Previous 48 Hours

Caption
Day and Hour Reservoir Elevation (behind dam)* Tailwater Elevation (below dam)* Average Hourly Discharge*
12/10/2018 2 AM EST 1,953.33 1,650.54 1,918
12/10/2018 3 AM EST 1,953.33 1,650.47 1,911
12/10/2018 4 AM EST 1,953.31 1,650.48 1,896
12/10/2018 5 AM EST 1,953.30 1,650.48 1,901
12/10/2018 6 AM EST 1,953.28 1,650.50 1,907
12/10/2018 7 AM EST 1,953.28 1,650.49 1,916
12/10/2018 8 AM EST 1,953.26 1,650.51 1,919
12/10/2018 9 AM EST 1,953.25 1,650.49 1,913
12/10/2018 10 AM EST 1,953.22 1,650.50 1,906
12/10/2018 11 AM EST 1,953.21 1,650.49 1,896
12/10/2018 12 PM EST 1,953.19 1,650.50 1,903
12/10/2018 1 PM EST 1,953.16 1,650.51 1,919
12/10/2018 2 PM EST 1,953.14 1,650.54 2,137
12/10/2018 3 PM EST 1,953.13 1,650.53 1,909
12/10/2018 4 PM EST 1,953.12 1,650.53 1,912
12/10/2018 5 PM EST 1,953.12 1,650.49 1,912
12/10/2018 6 PM EST 1,953.10 1,650.51 1,906
12/10/2018 7 PM EST 1,953.09 1,650.50 1,892
12/10/2018 8 PM EST 1,953.07 1,650.50 1,909
12/10/2018 9 PM EST 1,953.06 1,650.49 1,895
12/10/2018 10 PM EST 1,953.04 1,650.54 1,908
12/10/2018 11 PM EST 1,953.03 1,650.50 1,913
12/11/2018 12 AM EST 1,953.01 1,650.47 1,895
12/11/2018 1 AM EST 1,953.00 1,650.50 1,906
12/11/2018 2 AM EST 1,952.98 1,649.14 685
12/11/2018 3 AM EST 1,952.98 1,648.68 0
12/11/2018 4 AM EST 1,952.98 1,648.32 0
12/11/2018 5 AM EST 1,952.98 1,647.99 0
12/11/2018 6 AM EST 1,952.98 1,647.89 0
12/11/2018 7 AM EST 1,952.98 1,651.04 2,315
12/11/2018 8 AM EST 1,952.98 1,650.54 2,294
12/11/2018 9 AM EST 1,952.96 1,650.54 1,903
12/11/2018 10 AM EST 1,952.95 1,650.53 1,904
12/11/2018 11 AM EST 1,952.92 1,650.52 1,903
12/11/2018 12 PM EST 1,952.90 1,650.50 1,914
12/11/2018 1 PM EST 1,952.89 1,650.50 1,894
12/11/2018 2 PM EST 1,952.89 1,650.53 1,908
12/11/2018 3 PM EST 1,952.87 1,650.48 1,907
12/11/2018 4 PM EST 1,952.84 1,650.51 1,907
12/11/2018 5 PM EST 1,952.83 1,650.50 1,911
12/11/2018 6 PM EST 1,952.82 1,650.51 1,921
12/11/2018 7 PM EST 1,952.80 1,650.52 1,906
12/11/2018 8 PM EST 1,952.79 1,650.49 1,906
12/11/2018 9 PM EST 1,952.77 1,650.49 1,901
12/11/2018 10 PM EST 1,952.74 1,650.50 1,900
12/11/2018 11 PM EST 1,952.72 1,650.47 1,905
12/12/2018 12 AM EST 1,952.71 1,650.51 1,912
12/12/2018 1 AM EST 1,952.70 1,650.48 1,910
12/12/2018 2 AM EST 1,952.68 1,650.51 1,914
12/12/2018 3 AM EST 1,952.66 1,650.48 1,908

Elevations are in feet above sea level. Discharges are in cubic feet per second and are reported at the end of the hour.